Time;durP1;ratioP1;P1;durP2;ratioP2;P2;SDS_P1;SDS_P2;PMS_P1;PMS_P2;Temp;Humidity;BMP_temperature;BMP_pressure;BME280_temperature;BME280_humidity;BME280_pressure;Samples;Min_cycle;Max_cycle;Signal;HPM_P1;HPM_P2
2021/11/01 00:01:00;;;;;;;19.98;18.02;;;14.00;96.80;;;;;;5095483;28;20465;-65
2021/11/01 00:03:27;;;;;;;26.97;20.50;;;14.00;96.80;;;;;;5095967;28;20226;-66
2021/11/01 00:05:55;;;;;;;22.10;19.73;;;14.00;96.90;;;;;;5095331;28;20465;-66
2021/11/01 00:08:25;;;;;;;21.80;19.40;;;13.90;96.90;;;;;;5095815;28;20465;-66
2021/11/01 00:10:52;;;;;;;19.60;17.60;;;13.90;97.00;;;;;;5095473;28;20469;-66
2021/11/01 00:13:19;;;;;;;20.40;18.40;;;13.90;97.00;;;;;;5095521;28;20472;-66
2021/11/01 00:15:46;;;;;;;21.17;18.90;;;13.90;97.10;;;;;;5095502;28;20468;-66
2021/11/01 00:18:13;;;;;;;20.80;18.57;;;13.90;97.20;;;;;;5095524;28;20472;-66
2021/11/01 00:20:40;;;;;;;23.42;21.02;;;13.80;97.10;;;;;;5095604;28;20468;-66
2021/11/01 00:23:08;;;;;;;20.75;18.55;;;13.80;97.20;;;;;;5095227;28;20230;-66
2021/11/01 00:25:35;;;;;;;22.58;20.08;;;13.70;97.30;;;;;;5095295;28;20713;-66
2021/11/01 00:28:04;;;;;;;20.58;18.45;;;13.70;97.30;;;;;;5094570;28;20216;-66
2021/11/01 00:30:31;;;;;;;20.58;18.48;;;13.70;97.40;;;;;;5095481;28;20242;-66
2021/11/01 00:32:58;;;;;;;22.00;18.25;;;13.70;97.50;;;;;;5094533;28;20565;-66
2021/11/01 00:35:25;;;;;;;21.20;19.08;;;13.70;97.50;;;;;;5095438;27;20238;-66
2021/11/01 00:37:52;;;;;;;25.48;19.98;;;13.70;97.50;;;;;;5094981;27;20224;-66
2021/11/01 00:40:20;;;;;;;18.92;17.23;;;13.70;97.50;;;;;;5077873;28;20228;-67
2021/11/01 00:42:47;;;;;;;22.10;19.90;;;13.70;97.50;;;;;;5080863;28;20677;-66
2021/11/01 00:45:15;;;;;;;21.00;17.90;;;13.70;97.50;;;;;;5094781;28;20234;-66
2021/11/01 00:47:41;;;;;;;21.27;19.17;;;13.70;97.50;;;;;;5095039;28;20234;-66
2021/11/01 00:50:09;;;;;;;21.98;19.63;;;13.80;97.50;;;;;;5094465;28;20231;-66
2021/11/01 00:52:36;;;;;;;20.75;18.65;;;13.80;97.50;;;;;;5095058;28;20281;-66
2021/11/01 00:55:06;;;;;;;22.77;18.45;;;13.80;97.50;;;;;;5094456;28;20235;-66
2021/11/01 00:57:34;;;;;;;20.80;18.70;;;13.70;97.40;;;;;;5094995;28;20599;-66
2021/11/01 01:00:02;;;;;;;21.47;19.30;;;13.80;97.60;;;;;;5094372;28;20238;-66
2021/11/01 01:02:33;;;;;;;20.92;18.92;;;13.80;97.50;;;;;;5094732;28;20469;-66
2021/11/01 01:05:01;;;;;;;20.48;18.27;;;13.70;97.50;;;;;;5094418;28;20219;-66
2021/11/01 01:07:28;;;;;;;22.83;19.00;;;13.70;97.60;;;;;;5094757;28;20284;-66
2021/11/01 01:09:55;;;;;;;21.73;19.55;;;13.70;97.60;;;;;;5093944;28;20224;-66
2021/11/01 01:12:23;;;;;;;22.67;19.33;;;13.70;97.60;;;;;;5094739;28;20251;-66
2021/11/01 01:14:56;;;;;;;26.30;20.08;;;13.70;97.60;;;;;;5094319;28;20238;-66
2021/11/01 01:17:24;;;;;;;22.90;19.70;;;13.70;97.60;;;;;;5094527;28;20551;-66
2021/11/01 01:19:57;;;;;;;22.90;19.40;;;13.60;97.60;;;;;;5093918;28;20258;-66
2021/11/01 01:22:28;;;;;;;22.42;19.92;;;13.60;97.70;;;;;;5094578;28;20235;-66
2021/11/01 01:27:42;;;;;;;21.83;19.25;;;13.40;97.90;;;;;;5091954;28;20227;-66
2021/11/01 01:30:14;;;;;;;22.90;20.50;;;13.40;98.00;;;;;;5093209;28;20227;-65
2021/11/01 01:32:42;;;;;;;22.25;17.85;;;13.30;98.10;;;;;;5094181;28;20223;-65
2021/11/01 01:35:10;;;;;;;20.42;18.33;;;13.30;98.20;;;;;;5093980;28;20226;-65
2021/11/01 01:37:38;;;;;;;20.30;18.17;;;13.30;98.20;;;;;;5094253;28;20599;-66
2021/11/01 01:40:08;;;;;;;21.83;19.30;;;13.30;98.20;;;;;;5093447;28;20258;-65
2021/11/01 01:42:36;;;;;;;21.92;19.63;;;13.30;98.30;;;;;;5088896;28;20220;-65
2021/11/01 01:45:04;;;;;;;20.55;18.35;;;13.30;98.30;;;;;;5091689;28;20249;-66
2021/11/01 01:47:32;;;;;;;21.27;18.92;;;13.30;98.30;;;;;;5093789;28;20227;-66
2021/11/01 01:50:00;;;;;;;24.17;18.48;;;13.20;98.30;;;;;;5089538;28;20256;-66
2021/11/01 01:52:27;;;;;;;20.50;18.35;;;13.20;98.40;;;;;;5086889;28;20215;-66
2021/11/01 01:54:54;;;;;;;22.87;19.80;;;13.20;98.40;;;;;;5093083;28;20232;-66
2021/11/01 01:57:22;;;;;;;23.23;20.30;;;13.20;98.50;;;;;;5093929;28;20974;-66
2021/11/01 01:59:49;;;;;;;21.30;19.20;;;13.20;98.50;;;;;;5093727;28;20753;-66
2021/11/01 02:02:16;;;;;;;23.40;18.60;;;13.20;98.50;;;;;;5093312;28;20219;-66
2021/11/01 02:04:44;;;;;;;22.02;19.70;;;13.20;98.50;;;;;;5093684;28;20681;-66
2021/11/01 02:07:28;;;;;;;21.65;19.42;;;13.20;98.50;;;;;;5093137;28;20242;-66
2021/11/01 02:10:02;;;;;;;21.30;19.00;;;13.20;98.50;;;;;;5092967;28;20308;-67
2021/11/01 02:12:35;;;;;;;20.93;18.80;;;13.20;98.40;;;;;;5093442;28;20218;-66
2021/11/01 02:15:07;;;;;;;24.58;19.92;;;13.20;98.50;;;;;;5093182;28;20473;-67
2021/11/01 02:17:35;;;;;;;21.40;18.08;;;13.20;98.50;;;;;;5093517;28;20491;-66
2021/11/01 02:20:05;;;;;;;22.50;19.83;;;13.20;98.40;;;;;;5074722;28;20243;-67
2021/11/01 02:22:40;;;;;;;21.02;18.92;;;13.20;98.50;;;;;;5088109;28;20219;-67
2021/11/01 02:25:10;;;;;;;22.35;19.88;;;13.20;98.50;;;;;;5091092;28;20291;-67
2021/11/01 02:27:41;;;;;;;24.40;20.40;;;13.20;98.60;;;;;;5081666;28;20284;-66
2021/11/01 02:30:10;;;;;;;22.88;20.45;;;13.20;98.50;;;;;;5092505;28;20661;-66
2021/11/01 02:32:40;;;;;;;20.30;18.23;;;13.20;98.40;;;;;;5093195;28;20573;-67
2021/11/01 02:35:08;;;;;;;22.33;20.02;;;13.30;98.50;;;;;;5092681;28;20223;-66
2021/11/01 02:37:40;;;;;;;20.90;18.90;;;13.20;98.40;;;;;;5093093;28;20223;-67
2021/11/01 02:40:08;;;;;;;21.17;19.17;;;13.20;98.50;;;;;;5092283;28;20231;-67
2021/11/01 02:42:35;;;;;;;22.80;20.55;;;13.20;98.60;;;;;;5092973;28;20239;-67
2021/11/01 02:45:06;;;;;;;21.80;19.77;;;13.20;98.50;;;;;;5092442;28;20694;-66
2021/11/01 02:47:33;;;;;;;30.50;19.45;;;13.30;98.50;;;;;;5093125;28;20231;-66
2021/11/01 02:50:02;;;;;;;20.83;18.73;;;13.30;98.50;;;;;;5092305;28;20219;-67
2021/11/01 02:52:30;;;;;;;22.85;20.05;;;13.30;98.40;;;;;;5092724;28;20224;-66
2021/11/01 02:54:58;;;;;;;20.67;18.73;;;13.40;98.40;;;;;;5092482;28;20230;-66
2021/11/01 02:57:25;;;;;;;21.65;19.55;;;13.40;98.30;;;;;;5092846;28;20246;-67
2021/11/01 02:59:52;;;;;;;20.83;18.77;;;13.40;98.30;;;;;;5092765;28;20227;-66
2021/11/01 03:02:21;;;;;;;21.23;19.23;;;13.40;98.20;;;;;;5092497;28;20704;-66
2021/11/01 03:04:47;;;;;;;20.42;18.23;;;13.40;98.20;;;;;;5092715;28;20465;-66
2021/11/01 03:07:15;;;;;;;21.70;19.33;;;13.40;98.20;;;;;;5094429;28;20253;-66
2021/11/01 03:09:45;;;;;;;21.13;19.10;;;13.40;98.30;;;;;;5096954;28;20472;-66
2021/11/01 03:12:14;;;;;;;23.48;21.13;;;13.40;98.20;;;;;;5096460;28;20540;-66
2021/11/01 03:14:49;;;;;;;21.43;18.70;;;13.40;98.10;;;;;;5096888;28;20252;-67
2021/11/01 03:17:19;;;;;;;22.40;20.02;;;13.40;98.20;;;;;;5096354;28;20465;-66
2021/11/01 03:19:51;;;;;;;21.90;19.60;;;13.40;98.10;;;;;;5096825;28;20572;-66
2021/11/01 03:22:19;;;;;;;21.07;18.87;;;13.40;98.20;;;;;;5096137;28;20288;-66
2021/11/01 03:24:57;;;;;;;22.65;18.77;;;13.40;98.30;;;;;;5096521;28;20799;-66
2021/11/01 03:27:26;;;;;;;27.67;20.63;;;13.40;98.30;;;;;;5075022;28;21470;-66
2021/11/01 03:29:56;;;;;;;21.65;19.20;;;13.40;98.30;;;;;;5095669;28;20461;-67
2021/11/01 03:32:25;;;;;;;25.38;20.55;;;13.30;98.20;;;;;;5096177;28;20657;-66
2021/11/01 03:34:54;;;;;;;21.17;18.98;;;13.30;98.30;;;;;;5096585;28;20215;-67
2021/11/01 03:37:21;;;;;;;22.38;20.00;;;13.30;98.40;;;;;;5096185;28;22919;-66
2021/11/01 03:39:49;;;;;;;21.87;19.57;;;13.30;98.40;;;;;;5096362;28;20223;-66
2021/11/01 03:42:16;;;;;;;21.30;18.93;;;13.30;98.30;;;;;;5096052;28;20921;-67
2021/11/01 03:44:47;;;;;;;22.38;19.98;;;13.30;98.40;;;;;;5096217;28;20473;-67
2021/11/01 03:47:16;;;;;;;19.65;17.73;;;13.30;98.40;;;;;;5095944;28;20254;-67
2021/11/01 03:49:51;;;;;;;22.15;19.92;;;13.30;98.40;;;;;;5096125;28;20309;-67
2021/11/01 03:52:23;;;;;;;23.07;20.87;;;13.30;98.40;;;;;;5095802;28;20310;-66
2021/11/01 03:54:51;;;;;;;20.97;18.47;;;13.30;98.40;;;;;;5096072;28;20469;-66
2021/11/01 03:57:19;;;;;;;24.55;20.90;;;13.30;98.40;;;;;;5095549;28;20454;-66
2021/11/01 03:59:47;;;;;;;21.52;19.20;;;13.30;98.40;;;;;;5096120;28;20224;-66
2021/11/01 04:02:17;;;;;;;23.17;20.63;;;13.30;98.40;;;;;;5095568;28;20288;-66
2021/11/01 04:04:46;;;;;;;22.02;19.73;;;13.30;98.40;;;;;;5095870;28;20223;-67
2021/11/01 04:07:13;;;;;;;22.85;20.50;;;13.30;98.40;;;;;;5095519;28;20219;-66
2021/11/01 04:09:41;;;;;;;22.35;19.95;;;13.30;98.40;;;;;;5095670;28;20219;-66
2021/11/01 04:12:09;;;;;;;21.30;19.15;;;13.40;98.40;;;;;;5095372;28;20230;-66
2021/11/01 04:14:40;;;;;;;22.08;19.88;;;13.40;98.40;;;;;;5095813;28;20227;-67
2021/11/01 04:17:12;;;;;;;23.73;21.33;;;13.30;98.30;;;;;;5095372;28;20211;-66
2021/11/01 04:19:48;;;;;;;21.83;19.53;;;13.30;98.30;;;;;;5095656;28;20223;-67
2021/11/01 04:22:15;;;;;;;22.85;20.50;;;13.30;98.30;;;;;;5095118;28;20496;-67
2021/11/01 04:24:43;;;;;;;21.57;19.20;;;13.30;98.30;;;;;;5095449;28;20227;-67
2021/11/01 04:27:10;;;;;;;23.08;20.55;;;13.30;98.30;;;;;;5075972;28;20467;-67
2021/11/01 04:29:37;;;;;;;24.40;21.42;;;13.30;98.40;;;;;;5092369;28;20235;-67
2021/11/01 04:32:13;;;;;;;23.45;21.05;;;13.30;98.30;;;;;;5095365;28;20318;-67
2021/11/01 04:34:42;;;;;;;24.77;21.98;;;13.30;98.30;;;;;;5095892;28;20223;-67
2021/11/01 04:37:09;;;;;;;22.50;20.10;;;13.30;98.30;;;;;;5094832;28;20239;-67
2021/11/01 04:39:44;;;;;;;22.58;20.30;;;13.30;98.40;;;;;;5095168;28;20223;-67
2021/11/01 04:53:08;;;;;;;25.55;22.90;;;13.20;98.40;;;;;;5094656;28;20250;-66
2021/11/01 04:55:36;;;;;;;27.13;24.42;;;13.20;98.40;;;;;;5094763;28;20227;-67
2021/11/01 04:58:04;;;;;;;23.40;20.48;;;13.20;98.40;;;;;;5094668;28;20284;-66
2021/11/01 05:00:32;;;;;;;23.30;20.80;;;13.20;98.50;;;;;;5094805;28;20685;-66
2021/11/01 05:03:02;;;;;;;24.10;21.50;;;13.20;98.50;;;;;;5094271;28;20219;-66
2021/11/01 05:05:29;;;;;;;22.98;20.58;;;13.10;98.50;;;;;;5094895;28;20227;-66
2021/11/01 05:07:58;;;;;;;24.50;22.10;;;13.10;98.50;;;;;;5094611;28;20219;-66
2021/11/01 05:10:29;;;;;;;26.00;21.85;;;13.10;98.60;;;;;;5094253;28;20566;-66
2021/11/01 05:12:56;;;;;;;25.30;22.70;;;13.10;98.60;;;;;;5094850;28;20288;-67
2021/11/01 05:15:32;;;;;;;27.48;22.98;;;13.10;98.70;;;;;;5093996;28;20243;-66
2021/11/01 05:18:00;;;;;;;22.33;19.92;;;13.10;98.80;;;;;;5094641;28;20215;-66
2021/11/01 05:20:33;;;;;;;24.20;21.75;;;13.00;98.70;;;;;;5094254;28;20238;-67
2021/11/01 05:23:11;;;;;;;25.20;22.63;;;13.00;98.80;;;;;;5094436;28;20223;-67
2021/11/01 05:25:41;;;;;;;21.85;19.67;;;13.00;98.80;;;;;;5094078;28;20284;-66
2021/11/01 05:28:13;;;;;;;24.02;21.48;;;13.10;98.90;;;;;;5094222;28;20649;-66
2021/11/01 05:30:43;;;;;;;24.42;21.85;;;13.10;98.90;;;;;;5093337;28;20216;-67
2021/11/01 05:33:34;;;;;;;25.35;22.73;;;13.10;98.90;;;;;;5094274;28;20215;-67
2021/11/01 05:36:01;;;;;;;24.85;22.25;;;13.10;98.90;;;;;;5094195;28;20219;-66
2021/11/01 05:38:28;;;;;;;22.45;20.05;;;13.10;98.90;;;;;;5094146;28;20573;-67
2021/11/01 05:40:55;;;;;;;24.93;20.63;;;13.20;99.00;;;;;;5093918;28;20235;-66
2021/11/01 05:43:22;;;;;;;22.70;20.38;;;13.20;98.90;;;;;;5093694;28;20469;-66
2021/11/01 05:45:50;;;;;;;23.95;21.55;;;13.20;98.80;;;;;;5094059;28;20239;-67
2021/11/01 05:48:17;;;;;;;23.88;21.08;;;13.20;98.80;;;;;;5093401;28;20227;-68
2021/11/01 05:50:44;;;;;;;25.38;22.75;;;13.20;98.80;;;;;;5093864;28;20231;-66
2021/11/01 05:53:13;;;;;;;25.30;22.60;;;13.20;98.80;;;;;;5093256;28;20262;-67
2021/11/01 05:55:47;;;;;;;25.48;22.88;;;13.30;98.80;;;;;;5093849;28;20254;-66
2021/11/01 05:58:19;;;;;;;33.03;26.52;;;13.30;98.80;;;;;;5093371;28;20705;-67
2021/11/01 06:00:57;;;;;;;26.55;23.75;;;13.30;98.80;;;;;;5093590;28;20223;-67
2021/11/01 06:03:27;;;;;;;31.70;28.40;;;13.30;98.70;;;;;;5093383;28;20211;-67
2021/11/01 06:08:54;;;;;;;24.17;21.58;;;13.40;98.70;;;;;;5067046;28;20226;-67
2021/11/01 06:14:05;;;;;;;28.17;23.58;;;13.40;98.60;;;;;;5093345;28;20688;-67
2021/11/01 06:16:32;;;;;;;24.00;21.48;;;13.40;98.60;;;;;;5093264;28;20238;-66
2021/11/01 06:19:01;;;;;;;25.27;22.57;;;13.40;98.60;;;;;;5092991;28;20238;-67
2021/11/01 06:21:28;;;;;;;25.00;22.50;;;13.40;98.60;;;;;;5093443;28;20540;-65
2021/11/01 06:23:57;;;;;;;27.63;23.52;;;13.40;98.60;;;;;;5092645;28;20302;-67
2021/11/01 06:26:27;;;;;;;28.00;24.92;;;13.40;98.60;;;;;;5093200;28;20231;-66
2021/11/01 06:28:58;;;;;;;25.67;22.88;;;13.50;98.70;;;;;;5092782;28;20635;-66
2021/11/01 06:31:28;;;;;;;25.42;22.67;;;13.50;98.70;;;;;;5093012;28;20288;-66
2021/11/01 06:39:29;;;;;;;31.02;26.45;;;13.50;98.60;;;;;;5093402;28;20511;-67
2021/11/01 06:42:15;;;;;;;26.27;23.48;;;13.50;98.60;;;;;;5092034;28;20295;-67
2021/11/01 06:45:09;;;;;;;25.15;22.25;;;13.50;98.60;;;;;;5086825;28;20233;-66
2021/11/01 06:50:30;;;;;;;26.83;23.20;;;13.60;98.60;;;;;;5092717;28;20692;-67
2021/11/01 06:58:41;;;;;;;27.88;24.20;;;13.70;98.60;;;;;;5092916;28;20467;-68
2021/11/01 07:15:12;;;;;;;36.90;29.90;;;13.90;98.40;;;;;;5050123;28;20470;-66
2021/11/01 07:17:43;;;;;;;32.60;29.30;;;13.90;98.40;;;;;;5050584;28;20487;-67
2021/11/01 07:20:20;;;;;;;27.73;24.70;;;14.00;98.40;;;;;;5060892;28;20458;-66
2021/11/01 07:23:16;;;;;;;25.97;23.17;;;14.00;98.40;;;;;;5072069;28;20577;-67
2021/11/01 08:24:03;;;;;;;34.43;28.57;;;14.50;98.30;;;;;;5095256;28;20799;-66
2021/11/01 08:29:39;;;;;;;25.20;22.60;;;14.60;98.20;;;;;;5068998;28;20468;-67
2021/11/01 08:38:18;;;;;;;24.73;22.23;;;14.60;98.10;;;;;;5112337;27;20636;-67
2021/11/01 08:41:11;;;;;;;25.53;22.53;;;14.70;98.30;;;;;;5089606;28;20469;-67
2021/11/01 08:43:57;;;;;;;28.93;23.07;;;14.70;98.20;;;;;;5089357;28;20541;-66
2021/11/01 08:46:47;;;;;;;28.07;25.27;;;14.80;98.30;;;;;;5089492;28;20469;-66
2021/11/01 09:03:19;;;;;;;28.40;25.50;;;14.90;98.00;;;;;;5090360;28;20511;-67
2021/11/01 09:20:01;;;;;;;21.80;19.67;;;15.30;97.90;;;;;;5089502;28;20476;-67
2021/11/01 09:25:20;;;;;;;22.43;20.07;;;15.40;97.90;;;;;;5089248;28;20445;-67
2021/11/01 09:27:59;;;;;;;21.07;18.97;;;15.40;97.80;;;;;;5089243;28;20457;-67
2021/11/01 09:36:08;;;;;;;20.83;18.70;;;15.50;97.80;;;;;;5088766;28;20477;-66
2021/11/01 09:41:29;;;;;;;24.93;21.00;;;15.60;97.60;;;;;;5088911;28;20486;-67
2021/11/01 09:43:58;;;;;;;21.87;19.57;;;15.60;97.60;;;;;;5088877;28;20506;-67
2021/11/01 09:46:27;;;;;;;22.30;19.90;;;15.60;97.70;;;;;;5089018;28;20941;-67
2021/11/01 09:49:09;;;;;;;20.53;18.33;;;15.60;97.60;;;;;;5076967;28;20481;-67
2021/11/01 09:51:37;;;;;;;24.13;20.47;;;15.70;97.60;;;;;;5075040;28;20470;-67
2021/11/01 09:54:06;;;;;;;21.00;18.80;;;15.70;97.50;;;;;;5075268;28;20461;-67
2021/11/01 09:56:44;;;;;;;20.80;18.80;;;15.80;97.50;;;;;;5074887;28;20470;-67
2021/11/01 09:59:14;;;;;;;22.53;18.90;;;15.80;97.50;;;;;;5075069;28;21022;-67
2021/11/01 10:01:42;;;;;;;19.50;17.60;;;15.80;97.50;;;;;;5074905;28;20995;-67
2021/11/01 10:04:17;;;;;;;19.30;17.30;;;15.80;97.40;;;;;;5075199;28;20802;-67
2021/11/01 10:06:47;;;;;;;20.83;16.73;;;15.90;97.40;;;;;;5074654;28;20477;-66
2021/11/01 10:09:14;;;;;;;20.10;17.90;;;15.90;97.40;;;;;;5074972;28;20554;-66
2021/11/01 10:11:45;;;;;;;19.07;17.10;;;15.90;97.40;;;;;;5074668;28;20470;-67
2021/11/01 10:14:13;;;;;;;23.00;20.77;;;16.00;97.40;;;;;;5074931;28;20462;-67
2021/11/01 10:19:29;;;;;;;20.63;17.80;;;16.00;97.40;;;;;;5074689;28;20468;-66
2021/11/01 10:21:59;;;;;;;19.80;17.80;;;16.00;97.60;;;;;;5074512;28;20477;-67
2021/11/01 10:24:29;;;;;;;23.70;21.10;;;16.00;97.80;;;;;;5074680;28;20466;-67
2021/11/01 10:26:58;;;;;;;28.27;23.10;;;16.00;98.20;;;;;;5074377;28;20482;-67
2021/11/01 10:29:26;;;;;;;31.33;28.10;;;16.00;98.70;;;;;;5074585;28;20475;-66
2021/11/01 10:31:53;;;;;;;27.10;24.47;;;16.00;99.40;;;;;;5074292;28;20470;-67
2021/11/01 10:34:28;;;;;;;26.07;23.40;;;16.00;99.90;;;;;;5074543;28;20462;-67
2021/11/01 10:36:58;;;;;;;23.33;20.83;;;16.00;99.90;;;;;;5073967;28;20484;-67
2021/11/01 10:39:26;;;;;;;20.30;17.93;;;16.00;99.90;;;;;;5074173;28;20517;-66
2021/11/01 10:41:57;;;;;;;21.37;19.17;;;16.00;99.90;;;;;;5073948;28;20588;-66
2021/11/01 10:47:53;;;;;;;19.93;16.80;;;15.90;99.90;;;;;;5058447;28;20908;-67
2021/11/01 11:12:52;;;;;;;15.90;14.20;;;16.10;99.90;;;;;;5073832;28;20492;-67
2021/11/01 11:15:20;;;;;;;23.20;16.50;;;16.10;99.90;;;;;;5073348;28;20478;-66
2021/11/01 11:18:05;;;;;;;20.27;16.20;;;16.10;99.90;;;;;;5073746;28;20473;-67
2021/11/01 11:20:54;;;;;;;21.93;18.73;;;16.10;99.90;;;;;;5073305;28;20466;-67
2021/11/01 11:26:28;;;;;;;31.00;17.40;;;16.20;99.90;;;;;;5073050;28;20504;-67
2021/11/01 11:49:07;;;;;;;12.50;11.20;;;15.90;99.90;;;;;;5066512;28;20469;-66
2021/11/01 11:51:36;;;;;;;11.97;10.77;;;16.00;99.90;;;;;;5056095;28;21101;-67
2021/11/01 11:54:06;;;;;;;16.03;12.30;;;16.00;99.90;;;;;;5052948;28;20485;-66
2021/11/01 11:56:35;;;;;;;13.67;12.23;;;16.10;99.90;;;;;;5052772;28;20487;-66
2021/11/01 11:59:04;;;;;;;15.40;13.20;;;16.10;99.90;;;;;;5052937;28;20483;-68
2021/11/01 12:01:34;;;;;;;18.20;12.13;;;16.10;99.90;;;;;;5052508;28;20838;-66
2021/11/01 12:04:03;;;;;;;12.90;11.30;;;16.10;99.90;;;;;;5053034;28;21110;-66
2021/11/01 12:06:49;;;;;;;17.83;14.37;;;16.10;99.90;;;;;;5052446;28;20459;-66
2021/11/01 12:09:22;;;;;;;18.80;13.00;;;16.10;99.90;;;;;;5052144;28;20521;-66
2021/11/01 12:17:30;;;;;;;14.13;10.73;;;16.00;99.90;;;;;;5052206;28;20470;-66
2021/11/01 12:20:00;;;;;;;13.63;11.97;;;16.00;99.90;;;;;;5056632;28;20501;-67
2021/11/01 12:22:34;;;;;;;16.73;12.37;;;16.00;99.90;;;;;;5072397;28;20466;-66
2021/11/01 12:25:05;;;;;;;14.20;11.47;;;16.10;99.90;;;;;;5072524;28;20486;-66
2021/11/01 12:27:37;;;;;;;16.23;13.63;;;16.10;99.90;;;;;;5072249;28;20473;-66
2021/11/01 12:30:07;;;;;;;13.53;12.10;;;16.10;99.90;;;;;;5052551;28;20973;-66
2021/11/01 12:32:38;;;;;;;15.73;12.83;;;16.10;99.90;;;;;;5052145;28;20471;-66
2021/11/01 12:35:11;;;;;;;16.27;14.00;;;16.10;99.90;;;;;;5052620;28;20464;-67
2021/11/01 12:37:42;;;;;;;16.53;14.17;;;16.00;99.90;;;;;;5051791;28;20471;-66
2021/11/01 12:40:19;;;;;;;15.50;13.57;;;16.00;99.90;;;;;;5052501;28;20495;-65
2021/11/01 12:42:58;;;;;;;20.43;14.70;;;16.00;99.90;;;;;;5058822;28;20482;-67
2021/11/01 12:57:02;;;;;;;19.50;16.63;;;15.80;99.90;;;;;;5072393;28;20472;-66
2021/11/01 12:59:39;;;;;;;25.30;19.80;;;15.70;99.90;;;;;;5072412;28;20471;-66
2021/11/01 13:02:09;;;;;;;18.73;16.80;;;15.70;99.90;;;;;;5072453;28;20481;-66
2021/11/01 13:04:38;;;;;;;19.47;17.53;;;15.80;99.90;;;;;;5071844;28;20471;-67
2021/11/01 13:07:15;;;;;;;18.07;14.80;;;15.80;99.90;;;;;;5072269;28;20535;-66
2021/11/01 13:09:48;;;;;;;17.07;14.17;;;15.80;99.90;;;;;;5071745;28;20604;-67
2021/11/01 13:15:08;;;;;;;13.93;11.90;;;15.80;99.90;;;;;;5071406;28;21367;-66
2021/11/01 13:20:24;;;;;;;14.80;13.13;;;15.80;99.90;;;;;;5069841;28;20461;-66
2021/11/01 13:22:56;;;;;;;19.27;11.83;;;15.80;99.90;;;;;;5072240;28;20477;-67
2021/11/01 13:25:26;;;;;;;12.53;10.67;;;15.80;99.90;;;;;;5075660;28;20460;-66
2021/11/01 13:28:03;;;;;;;12.13;9.53;;;15.70;99.90;;;;;;5075024;28;20855;-66
2021/11/01 13:36:25;;;;;;;14.80;12.77;;;15.70;99.90;;;;;;5075621;28;20481;-67
2021/11/01 13:38:55;;;;;;;17.80;13.00;;;15.70;99.90;;;;;;5055689;28;20459;-67
2021/11/01 13:41:28;;;;;;;12.67;11.37;;;15.70;99.90;;;;;;5058662;28;20523;-67
2021/11/01 13:44:06;;;;;;;13.60;12.17;;;15.70;99.90;;;;;;5075502;28;20518;-67
2021/11/01 13:46:33;;;;;;;16.20;10.90;;;15.70;99.90;;;;;;5075870;28;20469;-67
2021/11/01 13:49:00;;;;;;;12.20;10.80;;;15.70;99.90;;;;;;5074955;28;20466;-67
2021/11/01 13:51:32;;;;;;;14.80;9.40;;;15.70;99.90;;;;;;5073188;28;20462;-66
2021/11/01 13:54:06;;;;;;;11.90;9.07;;;15.70;99.90;;;;;;5064554;28;20482;-66
2021/11/01 13:56:40;;;;;;;11.17;9.77;;;15.60;99.90;;;;;;5071598;28;20561;-67
2021/11/01 13:59:23;;;;;;;9.17;7.97;;;15.60;99.90;;;;;;5074954;28;20532;-67
2021/11/01 14:02:10;;;;;;;9.60;7.30;;;15.60;99.90;;;;;;5074743;28;20462;-67
2021/11/01 14:13:12;;;;;;;42.07;32.53;;;15.30;99.90;;;;;;5035144;28;20520;-67
2021/11/01 14:16:04;;;;;;;31.07;24.20;;;15.20;99.90;;;;;;5054946;28;20914;-67
2021/11/01 14:18:51;;;;;;;14.70;11.60;;;15.30;99.90;;;;;;5054350;28;21293;-67
2021/11/01 14:27:13;;;;;;;11.97;7.57;;;15.20;99.90;;;;;;5067022;28;20917;-68
2021/11/01 14:30:13;;;;;;;7.03;5.40;;;15.10;99.90;;;;;;5056947;28;20463;-67
2021/11/01 15:12:03;;;;;;;5.87;3.30;;;14.70;99.90;;;;;;5073952;28;20465;-67
2021/11/01 15:17:29;;;;;;;4.40;3.07;;;14.70;99.90;;;;;;5073385;28;20473;-66
2021/11/01 15:20:16;;;;;;;4.03;3.63;;;14.70;99.90;;;;;;5073300;28;21308;-67
2021/11/01 15:31:39;;;;;;;4.00;3.30;;;14.60;99.90;;;;;;5053415;28;20493;-67
2021/11/01 16:18:00;;;;;;;8.10;7.30;;;14.70;99.90;;;;;;5030964;28;21155;-66
2021/11/01 16:20:27;;;;;;;11.37;8.67;;;14.70;99.90;;;;;;5032587;28;20468;-68
2021/11/01 16:23:08;;;;;;;15.23;7.10;;;14.70;99.90;;;;;;5032237;28;20475;-67
2021/11/01 16:25:38;;;;;;;10.87;8.63;;;14.70;99.90;;;;;;5032709;28;20503;-67
2021/11/01 16:28:09;;;;;;;7.67;6.30;;;14.70;99.90;;;;;;5032382;28;20460;-67
2021/11/01 16:30:37;;;;;;;7.27;5.73;;;14.70;99.90;;;;;;5038753;28;20546;-67
2021/11/01 16:33:07;;;;;;;9.80;6.23;;;14.60;99.90;;;;;;5052202;28;20467;-67
2021/11/01 16:35:39;;;;;;;10.40;5.67;;;14.60;99.90;;;;;;5052433;28;20562;-67
2021/11/01 16:38:10;;;;;;;7.13;5.60;;;14.60;99.90;;;;;;5052101;28;20471;-67
2021/11/01 16:40:40;;;;;;;11.13;9.70;;;14.60;99.90;;;;;;5052419;28;20467;-67
2021/11/01 16:43:14;;;;;;;7.30;5.90;;;14.60;99.90;;;;;;5051910;28;20558;-67
2021/11/01 16:45:41;;;;;;;7.60;5.97;;;14.60;99.90;;;;;;5052525;28;20910;-66
2021/11/01 16:48:09;;;;;;;8.63;5.73;;;14.60;99.90;;;;;;5052006;28;20460;-66
2021/11/01 16:50:37;;;;;;;7.17;5.70;;;14.60;99.90;;;;;;5052146;28;20525;-67
2021/11/01 16:53:05;;;;;;;9.87;8.60;;;14.60;99.90;;;;;;5051861;28;20463;-68
2021/11/01 16:55:34;;;;;;;11.67;8.87;;;14.60;99.90;;;;;;5033917;28;20464;-67
2021/11/01 16:58:12;;;;;;;8.23;6.60;;;14.60;99.90;;;;;;5033095;28;20472;-67
2021/11/01 17:00:44;;;;;;;8.63;6.07;;;14.70;99.90;;;;;;5036310;28;20546;-68
2021/11/01 17:03:19;;;;;;;5.80;4.50;;;14.70;99.90;;;;;;5035908;28;20476;-67
2021/11/01 17:22:32;;;;;;;5.07;4.67;;;14.70;99.90;;;;;;4985720;28;20477;-66
2021/11/01 17:25:04;;;;;;;5.10;4.57;;;14.70;99.90;;;;;;5052990;28;20452;-67
2021/11/01 17:27:55;;;;;;;5.90;5.30;;;14.70;99.90;;;;;;5055703;28;20474;-66
2021/11/01 18:45:52;;;;;;;6.00;5.00;;;14.40;99.90;;;;;;5035997;28;20526;-67
2021/11/01 18:51:09;;;;;;;4.93;4.53;;;14.40;99.90;;;;;;5029126;28;20547;-67
2021/11/01 18:53:43;;;;;;;6.27;5.20;;;14.30;99.90;;;;;;5049665;28;20212;-66
2021/11/01 18:56:12;;;;;;;8.33;5.13;;;14.30;99.90;;;;;;5047031;28;20472;-66
2021/11/01 18:58:40;;;;;;;7.70;5.90;;;14.30;99.90;;;;;;5039568;28;20848;-67
2021/11/01 19:01:09;;;;;;;5.45;4.00;;;14.30;99.90;;;;;;5053971;28;20538;-66
2021/11/01 19:03:42;;;;;;;5.03;4.13;;;14.30;99.90;;;;;;5041355;28;20225;-67
2021/11/01 19:06:20;;;;;;;10.07;8.53;;;14.20;99.90;;;;;;5033712;28;20873;-67
2021/11/01 19:09:06;;;;;;;9.77;8.70;;;14.20;99.90;;;;;;5052041;28;21304;-66
2021/11/01 20:04:45;;;;;;;5.50;4.17;;;14.10;99.90;;;;;;5040045;28;20520;-67
2021/11/01 20:10:26;;;;;;;4.77;4.27;;;14.10;99.90;;;;;;5052407;28;20794;-67
2021/11/01 20:13:15;;;;;;;5.57;4.90;;;14.10;99.90;;;;;;5046743;28;20558;-66
2021/11/01 20:16:21;;;;;;;4.70;4.30;;;14.10;99.90;;;;;;5058838;28;20224;-66
2021/11/01 21:25:24;;;;;;;6.80;6.10;;;13.80;99.90;;;;;;5065241;28;20227;-67
2021/11/01 21:27:51;;;;;;;8.67;6.20;;;13.80;99.90;;;;;;5063313;28;20251;-67
2021/11/01 21:30:18;;;;;;;13.63;12.43;;;13.80;99.90;;;;;;5057499;28;20470;-67
2021/11/01 21:32:46;;;;;;;9.93;9.02;;;13.80;99.90;;;;;;5063221;28;20228;-67
2021/11/01 21:35:15;;;;;;;7.20;6.60;;;13.80;99.90;;;;;;5058369;28;20544;-67
2021/11/01 21:37:45;;;;;;;5.38;4.80;;;13.80;99.90;;;;;;5058021;28;20482;-67
2021/11/01 21:40:14;;;;;;;6.13;5.50;;;13.90;99.90;;;;;;5055379;28;20310;-67
2021/11/01 21:42:43;;;;;;;4.50;3.83;;;13.90;99.90;;;;;;5059911;28;20813;-67
2021/11/01 21:45:11;;;;;;;4.40;4.03;;;13.90;99.90;;;;;;5061756;28;20470;-67
2021/11/01 21:47:39;;;;;;;3.95;3.55;;;13.80;99.90;;;;;;5061553;28;20550;-67
2021/11/01 21:50:07;;;;;;;4.97;4.20;;;13.80;99.90;;;;;;5066965;28;20307;-67
2021/11/01 21:52:36;;;;;;;7.50;6.30;;;13.80;99.90;;;;;;5059389;28;20471;-67
2021/11/01 21:55:06;;;;;;;5.27;4.73;;;13.80;99.90;;;;;;5069035;28;20466;-67
2021/11/01 21:57:37;;;;;;;5.55;4.93;;;13.70;99.90;;;;;;5060923;28;20886;-67
2021/11/01 22:00:28;;;;;;;6.15;5.18;;;13.70;99.90;;;;;;5064564;28;20243;-67
2021/11/01 22:16:46;;;;;;;4.60;4.17;;;13.70;99.90;;;;;;5047783;28;20571;-65
2021/11/01 22:22:10;;;;;;;4.50;3.95;;;13.60;99.90;;;;;;5063569;28;20235;-66
2021/11/01 22:24:52;;;;;;;4.25;3.88;;;13.60;99.90;;;;;;5068071;28;20609;-66
2021/11/01 22:40:57;;;;;;;5.00;4.50;;;13.70;99.90;;;;;;5068263;28;20228;-66
2021/11/01 22:44:03;;;;;;;4.43;4.03;;;13.70;99.90;;;;;;5060030;28;21181;-64